^^
Daily Summary for September 24, 2021 Units:  Both    English   Metric
Daily Weekly Monthly Yearly Custom
  High: Low: Average:
Temperature: 96.0 °F /  35.6 °C 63.0 °F /  17.2 °C 77.5 °F /  25.3 °C
Dew Point: 48.0 °F /  8.9 °C 36.0 °F /  2.2 °C 40.8 °F /  4.9 °C
Humidity: 44% 14% 29%
Wind Speed: 16mph /  25.7km/h - 2.9mph /  4.7km/h
Wind Gust: 16mph /  25.7km/h - -
Wind- - South
Pressure: 30.0 in /  1015.8 hPa 29.9 in /  1012.4 hPa -
Precipitation: 0.000 in /  0 mm    
Historical Graphs
 
 
Tabular Data for September 24, 2021
Time Temperature Dew Point Pressure Wind Wind Speed Wind Gust Humidity Rainfall Rate (Hourly) solar
00:04 69.0 °F /  20.6 °C 43.0 °F /  6.1 °C 29.9in /  1012.4hPa NE 2mph /  3.2km/h   40% 0.000in /  0mm 0.00 W/m2
00:09 69.0 °F /  20.6 °C 43.0 °F /  6.1 °C 29.9in /  1012.4hPa Calm   2mph /  3.2km/h 40% 0.000in /  0mm 0.00 W/m2
00:14 69.0 °F /  20.6 °C 43.0 °F /  6.1 °C 29.9in /  1012.4hPa Calm     40% 0.000in /  0mm 0.00 W/m2
00:19 69.0 °F /  20.6 °C 43.0 °F /  6.1 °C 29.9in /  1012.4hPa Calm     40% 0.000in /  0mm 0.00 W/m2
00:24 68.0 °F /  20 °C 43.0 °F /  6.1 °C 29.9in /  1012.4hPa Calm     40% 0.000in /  0mm 0.00 W/m2
00:29 68.0 °F /  20 °C 43.0 °F /  6.1 °C 29.9in /  1012.4hPa NE 2mph /  3.2km/h   40% 0.000in /  0mm 0.00 W/m2
00:34 68.0 °F /  20 °C 44.0 °F /  6.7 °C 29.9in /  1012.4hPa Calm   2mph /  3.2km/h 41% 0.000in /  0mm 0.00 W/m2
00:39 68.0 °F /  20 °C 43.0 °F /  6.1 °C 29.9in /  1012.4hPa Calm     40% 0.000in /  0mm 0.00 W/m2
00:44 68.0 °F /  20 °C 43.0 °F /  6.1 °C 29.9in /  1012.4hPa Calm     40% 0.000in /  0mm 0.00 W/m2
00:49 68.0 °F /  20 °C 43.0 °F /  6.1 °C 29.9in /  1012.4hPa Calm     41% 0.000in /  0mm 0.00 W/m2
00:54 68.0 °F /  20 °C 43.0 °F /  6.1 °C 29.9in /  1012.4hPa Calm     41% 0.000in /  0mm 0.00 W/m2
00:59 68.0 °F /  20 °C 43.0 °F /  6.1 °C 29.9in /  1012.4hPa Calm     41% 0.000in /  0mm 0.00 W/m2
01:04 68.0 °F /  20 °C 43.0 °F /  6.1 °C 29.9in /  1012.4hPa Calm     41% 0.000in /  0mm 0.00 W/m2
01:09 67.0 °F /  19.4 °C 43.0 °F /  6.1 °C 29.9in /  1012.4hPa Calm     42% 0.000in /  0mm 0.00 W/m2
01:14 67.0 °F /  19.4 °C 43.0 °F /  6.1 °C 29.9in /  1012.4hPa Calm     42% 0.000in /  0mm 0.00 W/m2
01:19 67.0 °F /  19.4 °C 43.0 °F /  6.1 °C 29.9in /  1012.4hPa Calm     42% 0.000in /  0mm 0.00 W/m2
01:24 67.0 °F /  19.4 °C 43.0 °F /  6.1 °C 29.9in /  1012.4hPa Calm     41% 0.000in /  0mm 0.00 W/m2
01:29 67.0 °F /  19.4 °C 42.0 °F /  5.6 °C 29.9in /  1012.4hPa Calm     41% 0.000in /  0mm 0.00 W/m2
01:34 67.0 °F /  19.4 °C 42.0 °F /  5.6 °C 29.9in /  1012.4hPa Calm     41% 0.000in /  0mm 0.00 W/m2
01:38 67.0 °F /  19.4 °C 42.0 °F /  5.6 °C 29.9in /  1012.4hPa Calm     41% 0.000in /  0mm 0.00 W/m2
01:44 66.0 °F /  18.9 °C 41.0 °F /  5 °C 29.9in /  1012.4hPa Calm     40% 0.000in /  0mm 0.00 W/m2
01:49 66.0 °F /  18.9 °C 41.0 °F /  5 °C 29.9in /  1012.4hPa Calm     40% 0.000in /  0mm 0.00 W/m2
01:54 66.0 °F /  18.9 °C 42.0 °F /  5.6 °C 29.9in /  1012.4hPa Calm     41% 0.000in /  0mm 0.00 W/m2
01:59 66.0 °F /  18.9 °C 42.0 °F /  5.6 °C 29.9in /  1012.4hPa Calm     42% 0.000in /  0mm 0.00 W/m2
02:04 66.0 °F /  18.9 °C 43.0 °F /  6.1 °C 29.9in /  1012.4hPa Calm     43% 0.000in /  0mm 0.00 W/m2
02:09 66.0 °F /  18.9 °C 42.0 °F /  5.6 °C 29.9in /  1012.4hPa Calm     42% 0.000in /  0mm 0.00 W/m2
02:14 65.0 °F /  18.3 °C 42.0 °F /  5.6 °C 29.9in /  1012.4hPa Calm     43% 0.000in /  0mm 0.00 W/m2
02:19 65.0 °F /  18.3 °C 42.0 °F /  5.6 °C 29.9in /  1012.4hPa Calm     43% 0.000in /  0mm 0.00 W/m2
02:24 65.0 °F /  18.3 °C 42.0 °F /  5.6 °C 29.9in /  1012.4hPa Calm     43% 0.000in /  0mm 0.00 W/m2
02:29 65.0 °F /  18.3 °C 42.0 °F /  5.6 °C 30.0in /  1015.8hPa Calm     43% 0.000in /  0mm 0.00 W/m2
02:34 65.0 °F /  18.3 °C 42.0 °F /  5.6 °C 30.0in /  1015.8hPa Calm     43% 0.000in /  0mm 0.00 W/m2
02:39 65.0 °F /  18.3 °C 42.0 °F /  5.6 °C 30.0in /  1015.8hPa Calm     43% 0.000in /  0mm 0.00 W/m2
02:44 65.0 °F /  18.3 °C 42.0 °F /  5.6 °C 30.0in /  1015.8hPa Calm     43% 0.000in /  0mm 0.00 W/m2
02:49 65.0 °F /  18.3 °C 42.0 °F /  5.6 °C 30.0in /  1015.8hPa Calm     44% 0.000in /  0mm 0.00 W/m2
02:54 65.0 °F /  18.3 °C 42.0 °F /  5.6 °C 30.0in /  1015.8hPa Calm     44% 0.000in /  0mm 0.00 W/m2
02:59 64.0 °F /  17.8 °C 41.0 °F /  5 °C 30.0in /  1015.8hPa Calm     43% 0.000in /  0mm 0.00 W/m2
03:04 64.0 °F /  17.8 °C 41.0 °F /  5 °C 30.0in /  1015.8hPa Calm     43% 0.000in /  0mm 0.00 W/m2
03:09 64.0 °F /  17.8 °C 41.0 °F /  5 °C 30.0in /  1015.8hPa Calm     43% 0.000in /  0mm 0.00 W/m2
03:14 64.0 °F /  17.8 °C 41.0 °F /  5 °C 30.0in /  1015.8hPa Calm     43% 0.000in /  0mm 0.00 W/m2
03:19 64.0 °F /  17.8 °C 41.0 °F /  5 °C 30.0in /  1015.8hPa Calm     43% 0.000in /  0mm 0.00 W/m2
03:24 64.0 °F /  17.8 °C 41.0 °F /  5 °C 30.0in /  1015.8hPa Calm     43% 0.000in /  0mm 0.00 W/m2
03:29 64.0 °F /  17.8 °C 41.0 °F /  5 °C 30.0in /  1015.8hPa Calm     43% 0.000in /  0mm 0.00 W/m2
03:34 64.0 °F /  17.8 °C 41.0 °F /  5 °C 30.0in /  1015.8hPa Calm     43% 0.000in /  0mm 0.00 W/m2
03:39 64.0 °F /  17.8 °C 41.0 °F /  5 °C 30.0in /  1015.8hPa Calm     44% 0.000in /  0mm 0.00 W/m2
03:44 64.0 °F /  17.8 °C 41.0 °F /  5 °C 30.0in /  1015.8hPa Calm     44% 0.000in /  0mm 0.00 W/m2
03:49 64.0 °F /  17.8 °C 41.0 °F /  5 °C 30.0in /  1015.8hPa Calm     43% 0.000in /  0mm 0.00 W/m2
03:54 63.0 °F /  17.2 °C 41.0 °F /  5 °C 30.0in /  1015.8hPa Calm     43% 0.000in /  0mm 0.00 W/m2
03:59 63.0 °F /  17.2 °C 40.0 °F /  4.4 °C 30.0in /  1015.8hPa Calm     43% 0.000in /  0mm 0.00 W/m2
04:04 63.0 °F /  17.2 °C 40.0 °F /  4.4 °C 30.0in /  1015.8hPa Calm     42% 0.000in /  0mm 0.00 W/m2
04:09 63.0 °F /  17.2 °C 40.0 °F /  4.4 °C 30.0in /  1015.8hPa Calm     42% 0.000in /  0mm 0.00 W/m2
04:14 63.0 °F /  17.2 °C 41.0 °F /  5 °C 30.0in /  1015.8hPa Calm     44% 0.000in /  0mm 0.00 W/m2
04:19 63.0 °F /  17.2 °C 40.0 °F /  4.4 °C 30.0in /  1015.8hPa Calm     43% 0.000in /  0mm 0.00 W/m2
04:24 63.0 °F /  17.2 °C 39.0 °F /  3.9 °C 30.0in /  1015.8hPa Calm     41% 0.000in /  0mm 0.00 W/m2
04:29 63.0 °F /  17.2 °C 39.0 °F /  3.9 °C 30.0in /  1015.8hPa NE 2mph /  3.2km/h   41% 0.000in /  0mm 0.00 W/m2
04:34 63.0 °F /  17.2 °C 39.0 °F /  3.9 °C 30.0in /  1015.8hPa Calm   2mph /  3.2km/h 41% 0.000in /  0mm 0.00 W/m2
04:39 63.0 °F /  17.2 °C 38.0 °F /  3.3 °C 30.0in /  1015.8hPa NE 2mph /  3.2km/h   40% 0.000in /  0mm 0.00 W/m2
04:44 63.0 °F /  17.2 °C 38.0 °F /  3.3 °C 30.0in /  1015.8hPa Calm   2mph /  3.2km/h 40% 0.000in /  0mm 0.00 W/m2
04:49 63.0 °F /  17.2 °C 37.0 °F /  2.8 °C 30.0in /  1015.8hPa Calm     38% 0.000in /  0mm 0.00 W/m2
04:54 63.0 °F /  17.2 °C 37.0 °F /  2.8 °C 30.0in /  1015.8hPa Calm     38% 0.000in /  0mm 0.00 W/m2
04:59 63.0 °F /  17.2 °C 37.0 °F /  2.8 °C 30.0in /  1015.8hPa NE 2mph /  3.2km/h 1mph /  1.6km/h 38% 0.000in /  0mm 0.00 W/m2
05:04 64.0 °F /  17.8 °C 37.0 °F /  2.8 °C 30.0in /  1015.8hPa Calm   2mph /  3.2km/h 38% 0.000in /  0mm 0.00 W/m2
05:09 64.0 °F /  17.8 °C 37.0 °F /  2.8 °C 30.0in /  1015.8hPa Calm     37% 0.000in /  0mm 0.00 W/m2
05:14 64.0 °F /  17.8 °C 37.0 °F /  2.8 °C 30.0in /  1015.8hPa NE 2mph /  3.2km/h   37% 0.000in /  0mm 0.00 W/m2
05:19 64.0 °F /  17.8 °C 37.0 °F /  2.8 °C 30.0in /  1015.8hPa NE 2mph /  3.2km/h 2mph /  3.2km/h 36% 0.000in /  0mm 0.00 W/m2
05:24 64.0 °F /  17.8 °C 37.0 °F /  2.8 °C 30.0in /  1015.8hPa ENE 4mph /  6.4km/h 2mph /  3.2km/h 36% 0.000in /  0mm 0.00 W/m2
05:29 65.0 °F /  18.3 °C 37.0 °F /  2.8 °C 30.0in /  1015.8hPa Calm   3mph /  4.8km/h 36% 0.000in /  0mm 0.00 W/m2
05:34 65.0 °F /  18.3 °C 36.0 °F /  2.2 °C 30.0in /  1015.8hPa NE 2mph /  3.2km/h   35% 0.000in /  0mm 0.00 W/m2
05:39 65.0 °F /  18.3 °C 37.0 °F /  2.8 °C 30.0in /  1015.8hPa Calm   2mph /  3.2km/h 35% 0.000in /  0mm 0.00 W/m2
05:44 65.0 °F /  18.3 °C 37.0 °F /  2.8 °C 30.0in /  1015.8hPa Calm     35% 0.000in /  0mm 0.00 W/m2
05:49 65.0 °F /  18.3 °C 37.0 °F /  2.8 °C 30.0in /  1015.8hPa Calm     35% 0.000in /  0mm 0.00 W/m2
05:54 65.0 °F /  18.3 °C 36.0 °F /  2.2 °C 30.0in /  1015.8hPa Calm     34% 0.000in /  0mm 0.00 W/m2
05:59 65.0 °F /  18.3 °C 36.0 °F /  2.2 °C 30.0in /  1015.8hPa Calm     34% 0.000in /  0mm 0.00 W/m2
06:04 65.0 °F /  18.3 °C 37.0 °F /  2.8 °C 30.0in /  1015.8hPa Calm     35% 0.000in /  0mm 0.00 W/m2
06:09 65.0 °F /  18.3 °C 37.0 °F /  2.8 °C 30.0in /  1015.8hPa Calm     35% 0.000in /  0mm 0.00 W/m2
06:14 65.0 °F /  18.3 °C 36.0 °F /  2.2 °C 30.0in /  1015.8hPa NE 2mph /  3.2km/h   34% 0.000in /  0mm 0.00 W/m2
06:19 65.0 °F /  18.3 °C 36.0 °F /  2.2 °C 30.0in /  1015.8hPa Calm   2mph /  3.2km/h 34% 0.000in /  0mm 0.00 W/m2
06:24 65.0 °F /  18.3 °C 37.0 °F /  2.8 °C 30.0in /  1015.8hPa ENE 4mph /  6.4km/h 1mph /  1.6km/h 35% 0.000in /  0mm 0.00 W/m2
06:29 65.0 °F /  18.3 °C 36.0 °F /  2.2 °C 30.0in /  1015.8hPa Calm   3mph /  4.8km/h 34% 0.000in /  0mm 0.00 W/m2
06:34 65.0 °F /  18.3 °C 36.0 °F /  2.2 °C 30.0in /  1015.8hPa Calm     34% 0.000in /  0mm 0.00 W/m2
06:39 65.0 °F /  18.3 °C 36.0 °F /  2.2 °C 30.0in /  1015.8hPa Calm     34% 0.000in /  0mm 0.00 W/m2
06:44 65.0 °F /  18.3 °C 37.0 °F /  2.8 °C 30.0in /  1015.8hPa ENE 2mph /  3.2km/h   35% 0.000in /  0mm 0.00 W/m2
06:49 65.0 °F /  18.3 °C 37.0 °F /  2.8 °C 30.0in /  1015.8hPa Calm   2mph /  3.2km/h 35% 0.000in /  0mm 0.00 W/m2
06:54 65.0 °F /  18.3 °C 37.0 °F /  2.8 °C 30.0in /  1015.8hPa ENE 2mph /  3.2km/h   35% 0.000in /  0mm 0.00 W/m2
06:59 65.0 °F /  18.3 °C 37.0 °F /  2.8 °C 30.0in /  1015.8hPa ENE 2mph /  3.2km/h 2mph /  3.2km/h 35% 0.000in /  0mm 0.00 W/m2
07:04 65.0 °F /  18.3 °C 36.0 °F /  2.2 °C 30.0in /  1015.8hPa Calm   2mph /  3.2km/h 35% 0.000in /  0mm 7.00 W/m2
07:09 65.0 °F /  18.3 °C 37.0 °F /  2.8 °C 30.0in /  1015.8hPa ENE 2mph /  3.2km/h 1mph /  1.6km/h 35% 0.000in /  0mm 9.00 W/m2
07:14 65.0 °F /  18.3 °C 37.0 °F /  2.8 °C 30.0in /  1015.8hPa ENE 2mph /  3.2km/h 2mph /  3.2km/h 36% 0.000in /  0mm 11.00 W/m2
07:19 65.0 °F /  18.3 °C 37.0 °F /  2.8 °C 30.0in /  1015.8hPa Calm   2mph /  3.2km/h 35% 0.000in /  0mm 12.00 W/m2
07:24 65.0 °F /  18.3 °C 38.0 °F /  3.3 °C 30.0in /  1015.8hPa Calm     37% 0.000in /  0mm 16.00 W/m2
07:29 65.0 °F /  18.3 °C 38.0 °F /  3.3 °C 30.0in /  1015.8hPa Calm     37% 0.000in /  0mm 19.00 W/m2
07:34 65.0 °F /  18.3 °C 39.0 °F /  3.9 °C 30.0in /  1015.8hPa Calm     38% 0.000in /  0mm 21.00 W/m2
07:39 65.0 °F /  18.3 °C 39.0 °F /  3.9 °C 30.0in /  1015.8hPa Calm     38% 0.000in /  0mm 23.00 W/m2
07:44 65.0 °F /  18.3 °C 38.0 °F /  3.3 °C 30.0in /  1015.8hPa Calm     37% 0.000in /  0mm 25.00 W/m2
07:49 65.0 °F /  18.3 °C 38.0 °F /  3.3 °C 30.0in /  1015.8hPa Calm     37% 0.000in /  0mm 26.00 W/m2
07:54 65.0 °F /  18.3 °C 39.0 °F /  3.9 °C 30.0in /  1015.8hPa Calm     39% 0.000in /  0mm 28.00 W/m2
07:59 65.0 °F /  18.3 °C 40.0 °F /  4.4 °C 30.0in /  1015.8hPa Calm     40% 0.000in /  0mm 32.00 W/m2
08:04 65.0 °F /  18.3 °C 40.0 °F /  4.4 °C 30.0in /  1015.8hPa Calm     41% 0.000in /  0mm 39.00 W/m2
08:09 65.0 °F /  18.3 °C 41.0 °F /  5 °C 30.0in /  1015.8hPa Calm     42% 0.000in /  0mm 37.00 W/m2
08:14 65.0 °F /  18.3 °C 40.0 °F /  4.4 °C 30.0in /  1015.8hPa Calm     40% 0.000in /  0mm 39.00 W/m2
08:19 65.0 °F /  18.3 °C 39.0 °F /  3.9 °C 30.0in /  1015.8hPa Calm     39% 0.000in /  0mm 97.00 W/m2
08:24 65.0 °F /  18.3 °C 41.0 °F /  5 °C 30.0in /  1015.8hPa Calm     41% 0.000in /  0mm 265.00 W/m2
08:29 65.0 °F /  18.3 °C 42.0 °F /  5.6 °C 30.0in /  1015.8hPa Calm     43% 0.000in /  0mm 264.00 W/m2
08:34 65.0 °F /  18.3 °C 41.0 °F /  5 °C 30.0in /  1015.8hPa Calm     42% 0.000in /  0mm 209.00 W/m2
08:39 66.0 °F /  18.9 °C 42.0 °F /  5.6 °C 30.0in /  1015.8hPa Calm     42% 0.000in /  0mm 171.00 W/m2
08:44 66.0 °F /  18.9 °C 43.0 °F /  6.1 °C 30.0in /  1015.8hPa Calm     43% 0.000in /  0mm 338.00 W/m2
08:49 67.0 °F /  19.4 °C 43.0 °F /  6.1 °C 30.0in /  1015.8hPa Calm     42% 0.000in /  0mm 339.00 W/m2
08:54 67.0 °F /  19.4 °C 44.0 °F /  6.7 °C 30.0in /  1015.8hPa Calm     44% 0.000in /  0mm 369.00 W/m2
08:59 68.0 °F /  20 °C 44.0 °F /  6.7 °C 30.0in /  1015.8hPa Calm     43% 0.000in /  0mm 387.00 W/m2
09:04 68.0 °F /  20 °C 44.0 °F /  6.7 °C 30.0in /  1015.8hPa Calm     43% 0.000in /  0mm 403.00 W/m2
09:09 69.0 °F /  20.6 °C 43.0 °F /  6.1 °C 30.0in /  1015.8hPa Calm     41% 0.000in /  0mm 417.00 W/m2
09:14 69.0 °F /  20.6 °C 43.0 °F /  6.1 °C 30.0in /  1015.8hPa Calm     39% 0.000in /  0mm 432.00 W/m2
09:19 70.0 °F /  21.1 °C 43.0 °F /  6.1 °C 30.0in /  1015.8hPa Calm     39% 0.000in /  0mm 446.00 W/m2
09:24 70.0 °F /  21.1 °C 44.0 °F /  6.7 °C 30.0in /  1015.8hPa Calm     39% 0.000in /  0mm 462.00 W/m2
09:29 71.0 °F /  21.7 °C 44.0 °F /  6.7 °C 30.0in /  1015.8hPa Calm     39% 0.000in /  0mm 480.00 W/m2
09:34 72.0 °F /  22.2 °C 44.0 °F /  6.7 °C 30.0in /  1015.8hPa ENE 2mph /  3.2km/h 2mph /  3.2km/h 37% 0.000in /  0mm 496.00 W/m2
09:39 73.0 °F /  22.8 °C 43.0 °F /  6.1 °C 30.0in /  1015.8hPa ENE 2mph /  3.2km/h 2mph /  3.2km/h 35% 0.000in /  0mm 510.00 W/m2
09:44 74.0 °F /  23.3 °C 43.0 °F /  6.1 °C 30.0in /  1015.8hPa ENE 2mph /  3.2km/h 2mph /  3.2km/h 34% 0.000in /  0mm 522.00 W/m2
09:49 75.0 °F /  23.9 °C 41.0 °F /  5 °C 30.0in /  1015.8hPa SE 2mph /  3.2km/h 2mph /  3.2km/h 31% 0.000in /  0mm 538.00 W/m2
09:54 76.0 °F /  24.4 °C 42.0 °F /  5.6 °C 30.0in /  1015.8hPa ESE 4mph /  6.4km/h 3mph /  4.8km/h 30% 0.000in /  0mm 550.00 W/m2
09:59 77.0 °F /  25 °C 41.0 °F /  5 °C 30.0in /  1015.8hPa East 2mph /  3.2km/h 3mph /  4.8km/h 28% 0.000in /  0mm 566.00 W/m2
10:04 78.0 °F /  25.6 °C 42.0 °F /  5.6 °C 30.0in /  1015.8hPa East 2mph /  3.2km/h 2mph /  3.2km/h 28% 0.000in /  0mm 580.00 W/m2
10:09 79.0 °F /  26.1 °C 42.0 °F /  5.6 °C 30.0in /  1015.8hPa SW 9mph /  14.5km/h 8mph /  12.9km/h 27% 0.000in /  0mm 589.00 W/m2
10:14 80.0 °F /  26.7 °C 41.0 °F /  5 °C 30.0in /  1015.8hPa South 4mph /  6.4km/h 9mph /  14.5km/h 25% 0.000in /  0mm 601.00 W/m2
10:19 81.0 °F /  27.2 °C 42.0 °F /  5.6 °C 30.0in /  1015.8hPa ESE 4mph /  6.4km/h 3mph /  4.8km/h 25% 0.000in /  0mm 613.00 W/m2
10:24 81.0 °F /  27.2 °C 42.0 °F /  5.6 °C 30.0in /  1015.8hPa East 2mph /  3.2km/h 3mph /  4.8km/h 25% 0.000in /  0mm 626.00 W/m2
10:29 82.0 °F /  27.8 °C 41.0 °F /  5 °C 30.0in /  1015.8hPa East 2mph /  3.2km/h 2mph /  3.2km/h 24% 0.000in /  0mm 642.00 W/m2
10:34 83.0 °F /  28.3 °C 41.0 °F /  5 °C 30.0in /  1015.8hPa SW 6mph /  9.7km/h 5mph /  8km/h 23% 0.000in /  0mm 650.00 W/m2
10:39 83.0 °F /  28.3 °C 42.0 °F /  5.6 °C 30.0in /  1015.8hPa SSW 4mph /  6.4km/h 6mph /  9.7km/h 23% 0.000in /  0mm 661.00 W/m2
10:44 84.0 °F /  28.9 °C 40.0 °F /  4.4 °C 30.0in /  1015.8hPa WSW 6mph /  9.7km/h 3mph /  4.8km/h 21% 0.000in /  0mm 671.00 W/m2
10:49 85.0 °F /  29.4 °C 40.0 °F /  4.4 °C 30.0in /  1015.8hPa WSW 7mph /  11.3km/h 6mph /  9.7km/h 21% 0.000in /  0mm 682.00 W/m2
10:54 85.0 °F /  29.4 °C 39.0 °F /  3.9 °C 30.0in /  1015.8hPa West 7mph /  11.3km/h 7mph /  11.3km/h 20% 0.000in /  0mm 691.00 W/m2
10:59 85.0 °F /  29.4 °C 40.0 °F /  4.4 °C 30.0in /  1015.8hPa South 2mph /  3.2km/h 7mph /  11.3km/h 20% 0.000in /  0mm 701.00 W/m2
11:03 86.0 °F /  30 °C 44.0 °F /  6.7 °C 30.0in /  1015.8hPa South 4mph /  6.4km/h 2mph /  3.2km/h 23% 0.000in /  0mm 710.00 W/m2
11:09 86.0 °F /  30 °C 39.0 °F /  3.9 °C 30.0in /  1015.8hPa SE 6mph /  9.7km/h 3mph /  4.8km/h 19% 0.000in /  0mm 717.00 W/m2
11:14 87.0 °F /  30.6 °C 41.0 °F /  5 °C 30.0in /  1015.8hPa SSW 6mph /  9.7km/h 6mph /  9.7km/h 20% 0.000in /  0mm 731.00 W/m2
11:19 87.0 °F /  30.6 °C 40.0 °F /  4.4 °C 30.0in /  1015.8hPa SSW 6mph /  9.7km/h 6mph /  9.7km/h 19% 0.000in /  0mm 735.00 W/m2
11:24 88.0 °F /  31.1 °C 39.0 °F /  3.9 °C 30.0in /  1015.8hPa Calm   6mph /  9.7km/h 18% 0.000in /  0mm 744.00 W/m2
11:29 88.0 °F /  31.1 °C 40.0 °F /  4.4 °C 30.0in /  1015.8hPa SSW 7mph /  11.3km/h 4mph /  6.4km/h 19% 0.000in /  0mm 747.00 W/m2
11:34 88.0 °F /  31.1 °C 41.0 °F /  5 °C 30.0in /  1015.8hPa SE 2mph /  3.2km/h 7mph /  11.3km/h 19% 0.000in /  0mm 751.00 W/m2
11:39 89.0 °F /  31.7 °C 41.0 °F /  5 °C 30.0in /  1015.8hPa WSW 7mph /  11.3km/h 5mph /  8km/h 19% 0.000in /  0mm 756.00 W/m2
11:44 89.0 °F /  31.7 °C 39.0 °F /  3.9 °C 30.0in /  1015.8hPa SW 9mph /  14.5km/h 7mph /  11.3km/h 17% 0.000in /  0mm 761.00 W/m2
11:49 89.0 °F /  31.7 °C 39.0 °F /  3.9 °C 30.0in /  1015.8hPa SSW 7mph /  11.3km/h 9mph /  14.5km/h 17% 0.000in /  0mm 763.00 W/m2
11:54 90.0 °F /  32.2 °C 38.0 °F /  3.3 °C 30.0in /  1015.8hPa SSW 9mph /  14.5km/h 7mph /  11.3km/h 16% 0.000in /  0mm 779.00 W/m2
11:59 90.0 °F /  32.2 °C 38.0 °F /  3.3 °C 30.0in /  1015.8hPa WSW 6mph /  9.7km/h 9mph /  14.5km/h 16% 0.000in /  0mm 780.00 W/m2
12:04 90.0 °F /  32.2 °C 38.0 °F /  3.3 °C 30.0in /  1015.8hPa WSW 6mph /  9.7km/h 6mph /  9.7km/h 16% 0.000in /  0mm 786.00 W/m2
12:09 90.0 °F /  32.2 °C 43.0 °F /  6.1 °C 30.0in /  1015.8hPa SW 6mph /  9.7km/h 6mph /  9.7km/h 19% 0.000in /  0mm 788.00 W/m2
12:14 91.0 °F /  32.8 °C 43.0 °F /  6.1 °C 30.0in /  1015.8hPa SSE 9mph /  14.5km/h 8mph /  12.9km/h 19% 0.000in /  0mm 793.00 W/m2
12:19 91.0 °F /  32.8 °C 39.0 °F /  3.9 °C 30.0in /  1015.8hPa WSW 7mph /  11.3km/h 9mph /  14.5km/h 16% 0.000in /  0mm 793.00 W/m2
12:24 92.0 °F /  33.3 °C 42.0 °F /  5.6 °C 30.0in /  1015.8hPa South 4mph /  6.4km/h 7mph /  11.3km/h 18% 0.000in /  0mm 795.00 W/m2
12:29 92.0 °F /  33.3 °C 42.0 °F /  5.6 °C 30.0in /  1015.8hPa SSW 5mph /  8km/h 4mph /  6.4km/h 18% 0.000in /  0mm 795.00 W/m2
12:34 92.0 °F /  33.3 °C 38.0 °F /  3.3 °C 30.0in /  1015.8hPa SSW 6mph /  9.7km/h 6mph /  9.7km/h 15% 0.000in /  0mm 791.00 W/m2
12:39 93.0 °F /  33.9 °C 40.0 °F /  4.4 °C 30.0in /  1015.8hPa South 4mph /  6.4km/h 3mph /  4.8km/h 16% 0.000in /  0mm 793.00 W/m2
12:44 93.0 °F /  33.9 °C 38.0 °F /  3.3 °C 30.0in /  1015.8hPa WSW 11mph /  17.7km/h 9mph /  14.5km/h 15% 0.000in /  0mm 795.00 W/m2
12:47 93.0 °F /  33.9 °C 37.0 °F /  2.8 °C 30.0in /  1015.8hPa WSW 6mph /  9.7km/h 10mph /  16.1km/h 14% 0.000in /  0mm 791.00 W/m2
12:54 93.0 °F /  33.9 °C 39.0 °F /  3.9 °C 29.9in /  1012.4hPa SW 7mph /  11.3km/h 7mph /  11.3km/h 15% 0.000in /  0mm 789.00 W/m2
12:59 93.0 °F /  33.9 °C 39.0 °F /  3.9 °C 29.9in /  1012.4hPa West 9mph /  14.5km/h 7mph /  11.3km/h 15% 0.000in /  0mm 789.00 W/m2
13:04 93.0 °F /  33.9 °C 37.0 °F /  2.8 °C 30.0in /  1015.8hPa SW 6mph /  9.7km/h 9mph /  14.5km/h 14% 0.000in /  0mm 789.00 W/m2
13:09 94.0 °F /  34.4 °C 39.0 °F /  3.9 °C 30.0in /  1015.8hPa South 7mph /  11.3km/h 6mph /  9.7km/h 15% 0.000in /  0mm 782.00 W/m2
13:14 94.0 °F /  34.4 °C 41.0 °F /  5 °C 29.9in /  1012.4hPa ESE 5mph /  8km/h 7mph /  11.3km/h 16% 0.000in /  0mm 780.00 W/m2
13:19 94.0 °F /  34.4 °C 41.0 °F /  5 °C 29.9in /  1012.4hPa SSE 11mph /  17.7km/h 9mph /  14.5km/h 16% 0.000in /  0mm 772.00 W/m2
13:24 94.0 °F /  34.4 °C 39.0 °F /  3.9 °C 29.9in /  1012.4hPa WSW 10mph /  16.1km/h 10mph /  16.1km/h 15% 0.000in /  0mm 761.00 W/m2
13:29 94.0 °F /  34.4 °C 41.0 °F /  5 °C 29.9in /  1012.4hPa SW 13mph /  20.9km/h 8mph /  12.9km/h 16% 0.000in /  0mm 759.00 W/m2
13:34 94.0 °F /  34.4 °C 41.0 °F /  5 °C 29.9in /  1012.4hPa WSW 9mph /  14.5km/h 13mph /  20.9km/h 16% 0.000in /  0mm 759.00 W/m2
13:39 94.0 °F /  34.4 °C 41.0 °F /  5 °C 29.9in /  1012.4hPa West 13mph /  20.9km/h 9mph /  14.5km/h 16% 0.000in /  0mm 749.00 W/m2
13:44 94.0 °F /  34.4 °C 40.0 °F /  4.4 °C 29.9in /  1012.4hPa WSW 10mph /  16.1km/h 13mph /  20.9km/h 15% 0.000in /  0mm 745.00 W/m2
13:49 95.0 °F /  35 °C 41.0 °F /  5 °C 29.9in /  1012.4hPa NW 13mph /  20.9km/h 8mph /  12.9km/h 16% 0.000in /  0mm 731.00 W/m2
13:54 95.0 °F /  35 °C 42.0 °F /  5.6 °C 29.9in /  1012.4hPa SW 6mph /  9.7km/h 13mph /  20.9km/h 16% 0.000in /  0mm 728.00 W/m2
13:59 95.0 °F /  35 °C 42.0 °F /  5.6 °C 29.9in /  1012.4hPa SSW 6mph /  9.7km/h 6mph /  9.7km/h 16% 0.000in /  0mm 719.00 W/m2
14:04 95.0 °F /  35 °C 40.0 °F /  4.4 °C 29.9in /  1012.4hPa SW 7mph /  11.3km/h 7mph /  11.3km/h 15% 0.000in /  0mm 719.00 W/m2
14:09 95.0 °F /  35 °C 40.0 °F /  4.4 °C 29.9in /  1012.4hPa West 7mph /  11.3km/h 6mph /  9.7km/h 15% 0.000in /  0mm 705.00 W/m2
14:14 95.0 °F /  35 °C 42.0 °F /  5.6 °C 29.9in /  1012.4hPa West 7mph /  11.3km/h 7mph /  11.3km/h 16% 0.000in /  0mm 700.00 W/m2
14:19 95.0 °F /  35 °C 38.0 °F /  3.3 °C 29.9in /  1012.4hPa WSW 11mph /  17.7km/h 7mph /  11.3km/h 14% 0.000in /  0mm 687.00 W/m2
14:24 95.0 °F /  35 °C 38.0 °F /  3.3 °C 29.9in /  1012.4hPa SSW 13mph /  20.9km/h 10mph /  16.1km/h 14% 0.000in /  0mm 687.00 W/m2
14:29 95.0 °F /  35 °C 40.0 °F /  4.4 °C 29.9in /  1012.4hPa SSW 4mph /  6.4km/h 13mph /  20.9km/h 15% 0.000in /  0mm 671.00 W/m2
14:34 95.0 °F /  35 °C 39.0 °F /  3.9 °C 29.9in /  1012.4hPa SW 9mph /  14.5km/h 5mph /  8km/h 14% 0.000in /  0mm 671.00 W/m2
14:39 95.0 °F /  35 °C 39.0 °F /  3.9 °C 29.9in /  1012.4hPa SW 11mph /  17.7km/h 10mph /  16.1km/h 14% 0.000in /  0mm 663.00 W/m2
14:44 95.0 °F /  35 °C 40.0 °F /  4.4 °C 29.9in /  1012.4hPa SW 11mph /  17.7km/h 10mph /  16.1km/h 15% 0.000in /  0mm 663.00 W/m2
14:49 96.0 °F /  35.6 °C 39.0 °F /  3.9 °C 29.9in /  1012.4hPa WNW 10mph /  16.1km/h 10mph /  16.1km/h 14% 0.000in /  0mm 649.00 W/m2
14:54 96.0 °F /  35.6 °C 41.0 °F /  5 °C 29.9in /  1012.4hPa SW 13mph /  20.9km/h 13mph /  20.9km/h 15% 0.000in /  0mm 642.00 W/m2
14:59 96.0 °F /  35.6 °C 41.0 °F /  5 °C 29.9in /  1012.4hPa WSW 7mph /  11.3km/h 13mph /  20.9km/h 15% 0.000in /  0mm 631.00 W/m2
15:04 96.0 °F /  35.6 °C 41.0 °F /  5 °C 29.9in /  1012.4hPa SW 16mph /  25.7km/h 8mph /  12.9km/h 15% 0.000in /  0mm 621.00 W/m2
15:09 96.0 °F /  35.6 °C 41.0 °F /  5 °C 29.9in /  1012.4hPa SW 7mph /  11.3km/h 16mph /  25.7km/h 15% 0.000in /  0mm 612.00 W/m2
15:14 95.0 °F /  35 °C 39.0 °F /  3.9 °C 29.9in /  1012.4hPa SW 9mph /  14.5km/h 7mph /  11.3km/h 14% 0.000in /  0mm 603.00 W/m2
15:19 95.0 °F /  35 °C 40.0 °F /  4.4 °C 29.9in /  1012.4hPa SW 11mph /  17.7km/h 9mph /  14.5km/h 15% 0.000in /  0mm 591.00 W/m2
15:24 95.0 °F /  35 °C 40.0 °F /  4.4 °C 29.9in /  1012.4hPa WSW 7mph /  11.3km/h 10mph /  16.1km/h 15% 0.000in /  0mm 580.00 W/m2
15:29 95.0 °F /  35 °C 40.0 °F /  4.4 °C 29.9in /  1012.4hPa WSW 11mph /  17.7km/h 10mph /  16.1km/h 15% 0.000in /  0mm 563.00 W/m2
15:34 95.0 °F /  35 °C 42.0 °F /  5.6 °C 29.9in /  1012.4hPa SW 11mph /  17.7km/h 9mph /  14.5km/h 16% 0.000in /  0mm 550.00 W/m2
15:39 95.0 °F /  35 °C 40.0 °F /  4.4 °C 29.9in /  1012.4hPa WSW 9mph /  14.5km/h 10mph /  16.1km/h 15% 0.000in /  0mm 536.00 W/m2
15:44 95.0 °F /  35 °C 40.0 °F /  4.4 °C 29.9in /  1012.4hPa WSW 11mph /  17.7km/h 9mph /  14.5km/h 15% 0.000in /  0mm 522.00 W/m2
15:49 94.0 °F /  34.4 °C 40.0 °F /  4.4 °C 29.9in /  1012.4hPa West 7mph /  11.3km/h 10mph /  16.1km/h 15% 0.000in /  0mm 508.00 W/m2
15:54 94.0 °F /  34.4 °C 41.0 °F /  5 °C 29.9in /  1012.4hPa SW 9mph /  14.5km/h 8mph /  12.9km/h 16% 0.000in /  0mm 494.00 W/m2
15:59 94.0 °F /  34.4 °C 41.0 °F /  5 °C 29.9in /  1012.4hPa South 11mph /  17.7km/h 9mph /  14.5km/h 16% 0.000in /  0mm 478.00 W/m2
16:04 94.0 °F /  34.4 °C 44.0 °F /  6.7 °C 29.9in /  1012.4hPa South 7mph /  11.3km/h 10mph /  16.1km/h 18% 0.000in /  0mm 464.00 W/m2
16:09 94.0 °F /  34.4 °C 46.0 °F /  7.8 °C 29.9in /  1012.4hPa SE 6mph /  9.7km/h 7mph /  11.3km/h 19% 0.000in /  0mm 450.00 W/m2
16:14 95.0 °F /  35 °C 43.0 °F /  6.1 °C 29.9in /  1012.4hPa SE 6mph /  9.7km/h 6mph /  9.7km/h 17% 0.000in /  0mm 436.00 W/m2
16:19 95.0 °F /  35 °C 45.0 °F /  7.2 °C 29.9in /  1012.4hPa SSW 7mph /  11.3km/h 7mph /  11.3km/h 18% 0.000in /  0mm 418.00 W/m2
16:24 95.0 °F /  35 °C 45.0 °F /  7.2 °C 29.9in /  1012.4hPa SSW 9mph /  14.5km/h 7mph /  11.3km/h 18% 0.000in /  0mm 406.00 W/m2
16:29 95.0 °F /  35 °C 43.0 °F /  6.1 °C 29.9in /  1012.4hPa SW 5mph /  8km/h 9mph /  14.5km/h 17% 0.000in /  0mm 388.00 W/m2
16:34 95.0 °F /  35 °C 42.0 °F /  5.6 °C 29.9in /  1012.4hPa SW 9mph /  14.5km/h 6mph /  9.7km/h 16% 0.000in /  0mm 373.00 W/m2
16:39 95.0 °F /  35 °C 43.0 °F /  6.1 °C 29.9in /  1012.4hPa SW 9mph /  14.5km/h 9mph /  14.5km/h 17% 0.000in /  0mm 357.00 W/m2
16:44 95.0 °F /  35 °C 43.0 °F /  6.1 °C 29.9in /  1012.4hPa SSE 7mph /  11.3km/h 6mph /  9.7km/h 17% 0.000in /  0mm 343.00 W/m2
16:49 94.0 °F /  34.4 °C 41.0 °F /  5 °C 29.9in /  1012.4hPa SW 7mph /  11.3km/h 7mph /  11.3km/h 16% 0.000in /  0mm 329.00 W/m2
16:54 94.0 °F /  34.4 °C 40.0 °F /  4.4 °C 29.9in /  1012.4hPa SSW 6mph /  9.7km/h 6mph /  9.7km/h 15% 0.000in /  0mm 311.00 W/m2
16:59 94.0 °F /  34.4 °C 41.0 °F /  5 °C 29.9in /  1012.4hPa SW 6mph /  9.7km/h 6mph /  9.7km/h 16% 0.000in /  0mm 297.00 W/m2
17:04 94.0 °F /  34.4 °C 42.0 °F /  5.6 °C 29.9in /  1012.4hPa South 7mph /  11.3km/h 6mph /  9.7km/h 17% 0.000in /  0mm 258.00 W/m2
17:09 94.0 °F /  34.4 °C 42.0 °F /  5.6 °C 29.9in /  1012.4hPa SSW 4mph /  6.4km/h 7mph /  11.3km/h 17% 0.000in /  0mm 123.00 W/m2
17:14 93.0 °F /  33.9 °C 40.0 °F /  4.4 °C 29.9in /  1012.4hPa WSW 6mph /  9.7km/h 3mph /  4.8km/h 16% 0.000in /  0mm 105.00 W/m2
17:19 93.0 °F /  33.9 °C 43.0 °F /  6.1 °C 29.9in /  1012.4hPa SSW 6mph /  9.7km/h 6mph /  9.7km/h 18% 0.000in /  0mm 81.00 W/m2
17:24 92.0 °F /  33.3 °C 40.0 °F /  4.4 °C 29.9in /  1012.4hPa SW 5mph /  8km/h 6mph /  9.7km/h 16% 0.000in /  0mm 125.00 W/m2
17:29 92.0 °F /  33.3 °C 43.0 °F /  6.1 °C 29.9in /  1012.4hPa SSW 6mph /  9.7km/h 6mph /  9.7km/h 19% 0.000in /  0mm 134.00 W/m2
17:34 91.0 °F /  32.8 °C 43.0 °F /  6.1 °C 29.9in /  1012.4hPa SSW 6mph /  9.7km/h 2mph /  3.2km/h 19% 0.000in /  0mm 84.00 W/m2
17:39 91.0 °F /  32.8 °C 41.0 °F /  5 °C 29.9in /  1012.4hPa SSW 2mph /  3.2km/h 6mph /  9.7km/h 18% 0.000in /  0mm 98.00 W/m2
17:44 90.0 °F /  32.2 °C 41.0 °F /  5 °C 29.9in /  1012.4hPa SSW 2mph /  3.2km/h 2mph /  3.2km/h 18% 0.000in /  0mm 98.00 W/m2
17:49 90.0 °F /  32.2 °C 41.0 °F /  5 °C 29.9in /  1012.4hPa West 6mph /  9.7km/h 2mph /  3.2km/h 18% 0.000in /  0mm 93.00 W/m2
17:54 90.0 °F /  32.2 °C 40.0 °F /  4.4 °C 29.9in /  1012.4hPa WSW 11mph /  17.7km/h 7mph /  11.3km/h 18% 0.000in /  0mm 51.00 W/m2
17:59 89.0 °F /  31.7 °C 40.0 °F /  4.4 °C 29.9in /  1012.4hPa SSW 6mph /  9.7km/h 3mph /  4.8km/h 18% 0.000in /  0mm 49.00 W/m2
18:04 89.0 °F /  31.7 °C 38.0 °F /  3.3 °C 29.9in /  1012.4hPa SW 6mph /  9.7km/h 6mph /  9.7km/h 17% 0.000in /  0mm 40.00 W/m2
18:09 88.0 °F /  31.1 °C 42.0 °F /  5.6 °C 29.9in /  1012.4hPa Calm   6mph /  9.7km/h 20% 0.000in /  0mm 37.00 W/m2
18:14 88.0 °F /  31.1 °C 41.0 °F /  5 °C 29.9in /  1012.4hPa SW 7mph /  11.3km/h 3mph /  4.8km/h 19% 0.000in /  0mm 33.00 W/m2
18:19 88.0 °F /  31.1 °C 47.0 °F /  8.3 °C 29.9in /  1012.4hPa SW 2mph /  3.2km/h 7mph /  11.3km/h 25% 0.000in /  0mm 30.00 W/m2
18:24 87.0 °F /  30.6 °C 46.0 °F /  7.8 °C 29.9in /  1012.4hPa Calm     24% 0.000in /  0mm 26.00 W/m2
18:29 87.0 °F /  30.6 °C 48.0 °F /  8.9 °C 29.9in /  1012.4hPa Calm     27% 0.000in /  0mm 23.00 W/m2
18:34 86.0 °F /  30 °C 47.0 °F /  8.3 °C 29.9in /  1012.4hPa Calm     26% 0.000in /  0mm 19.00 W/m2
18:39 86.0 °F /  30 °C 47.0 °F /  8.3 °C 29.9in /  1012.4hPa Calm     27% 0.000in /  0mm 16.00 W/m2
18:44 85.0 °F /  29.4 °C 48.0 °F /  8.9 °C 29.9in /  1012.4hPa Calm     28% 0.000in /  0mm 14.00 W/m2
18:49 84.0 °F /  28.9 °C 46.0 °F /  7.8 °C 29.9in /  1012.4hPa Calm     27% 0.000in /  0mm 11.00 W/m2
18:54 83.0 °F /  28.3 °C 46.0 °F /  7.8 °C 29.9in /  1012.4hPa Calm     28% 0.000in /  0mm 7.00 W/m2
18:59 83.0 °F /  28.3 °C 45.0 °F /  7.2 °C 29.9in /  1012.4hPa Calm     27% 0.000in /  0mm 5.00 W/m2
19:04 82.0 °F /  27.8 °C 42.0 °F /  5.6 °C 29.9in /  1012.4hPa Calm     24% 0.000in /  0mm 0.00 W/m2
19:09 81.0 °F /  27.2 °C 41.0 °F /  5 °C 29.9in /  1012.4hPa Calm     24% 0.000in /  0mm 0.00 W/m2
19:14 81.0 °F /  27.2 °C 42.0 °F /  5.6 °C 30.0in /  1015.8hPa Calm     26% 0.000in /  0mm 0.00 W/m2
19:19 80.0 °F /  26.7 °C 43.0 °F /  6.1 °C 30.0in /  1015.8hPa Calm     27% 0.000in /  0mm 0.00 W/m2
19:24 79.0 °F /  26.1 °C 43.0 °F /  6.1 °C 30.0in /  1015.8hPa Calm     28% 0.000in /  0mm 0.00 W/m2
19:29 79.0 °F /  26.1 °C 43.0 °F /  6.1 °C 30.0in /  1015.8hPa Calm     28% 0.000in /  0mm 0.00 W/m2
19:34 78.0 °F /  25.6 °C 42.0 °F /  5.6 °C 30.0in /  1015.8hPa Calm     28% 0.000in /  0mm 0.00 W/m2
19:39 78.0 °F /  25.6 °C 43.0 °F /  6.1 °C 30.0in /  1015.8hPa Calm     29% 0.000in /  0mm 0.00 W/m2
19:44 77.0 °F /  25 °C 42.0 °F /  5.6 °C 30.0in /  1015.8hPa Calm     28% 0.000in /  0mm 0.00 W/m2
19:49 77.0 °F /  25 °C 41.0 °F /  5 °C 30.0in /  1015.8hPa Calm     28% 0.000in /  0mm 0.00 W/m2
19:54 76.0 °F /  24.4 °C 43.0 °F /  6.1 °C 30.0in /  1015.8hPa Calm     30% 0.000in /  0mm 0.00 W/m2
19:59 76.0 °F /  24.4 °C 41.0 °F /  5 °C 30.0in /  1015.8hPa Calm     29% 0.000in /  0mm 0.00 W/m2
20:04 76.0 °F /  24.4 °C 42.0 °F /  5.6 °C 30.0in /  1015.8hPa Calm     30% 0.000in /  0mm 0.00 W/m2
20:09 75.0 °F /  23.9 °C 41.0 °F /  5 °C 30.0in /  1015.8hPa Calm     30% 0.000in /  0mm 0.00 W/m2
20:14 75.0 °F /  23.9 °C 41.0 °F /  5 °C 30.0in /  1015.8hPa Calm     30% 0.000in /  0mm 0.00 W/m2
20:19 75.0 °F /  23.9 °C 40.0 °F /  4.4 °C 30.0in /  1015.8hPa Calm     29% 0.000in /  0mm 0.00 W/m2
20:24 74.0 °F /  23.3 °C 41.0 °F /  5 °C 30.0in /  1015.8hPa Calm     30% 0.000in /  0mm 0.00 W/m2
20:29 74.0 °F /  23.3 °C 41.0 °F /  5 °C 30.0in /  1015.8hPa Calm     31% 0.000in /  0mm 0.00 W/m2
20:34 74.0 °F /  23.3 °C 41.0 °F /  5 °C 30.0in /  1015.8hPa Calm     31% 0.000in /  0mm 0.00 W/m2
20:39 74.0 °F /  23.3 °C 42.0 °F /  5.6 °C 30.0in /  1015.8hPa Calm     32% 0.000in /  0mm 0.00 W/m2
20:44 73.0 °F /  22.8 °C 42.0 °F /  5.6 °C 30.0in /  1015.8hPa Calm     32% 0.000in /  0mm 0.00 W/m2
20:49 73.0 °F /  22.8 °C 42.0 °F /  5.6 °C 30.0in /  1015.8hPa Calm     33% 0.000in /  0mm 0.00 W/m2
20:54 73.0 °F /  22.8 °C 43.0 °F /  6.1 °C 30.0in /  1015.8hPa Calm     35% 0.000in /  0mm 0.00 W/m2
20:59 72.0 °F /  22.2 °C 42.0 °F /  5.6 °C 30.0in /  1015.8hPa Calm     33% 0.000in /  0mm 0.00 W/m2
21:04 72.0 °F /  22.2 °C 41.0 °F /  5 °C 30.0in /  1015.8hPa Calm     33% 0.000in /  0mm 0.00 W/m2
21:09 72.0 °F /  22.2 °C 41.0 °F /  5 °C 30.0in /  1015.8hPa Calm     33% 0.000in /  0mm 0.00 W/m2
21:14 72.0 °F /  22.2 °C 41.0 °F /  5 °C 30.0in /  1015.8hPa Calm     33% 0.000in /  0mm 0.00 W/m2
21:19 72.0 °F /  22.2 °C 42.0 °F /  5.6 °C 30.0in /  1015.8hPa Calm     34% 0.000in /  0mm 0.00 W/m2
21:20 71.0 °F /  21.7 °C 41.0 °F /  5 °C 30.0in /  1015.8hPa Calm     33% 0.000in /  0mm 0.00 W/m2
El Dorado Weather
Compliments of Weather Underground - 2 mb